createdAt,value
2022-12-14T00:01:29.027Z,13.90
2022-12-14T00:03:56.313Z,14.30
2022-12-14T00:06:28.374Z,12.80
2022-12-14T00:08:57.328Z,13.75
2022-12-14T00:11:24.455Z,16.77
2022-12-14T00:13:59.214Z,13.55
2022-12-14T00:16:28.227Z,13.45
2022-12-14T00:18:56.301Z,15.13
2022-12-14T00:21:23.567Z,12.88
2022-12-14T00:23:52.094Z,16.85
2022-12-14T00:26:29.671Z,20.70
2022-12-14T00:28:56.894Z,15.05
2022-12-14T00:31:24.260Z,16.42
2022-12-14T00:33:51.569Z,14.73
2022-12-14T00:36:18.892Z,15.30
2022-12-14T00:38:45.363Z,17.45
2022-12-14T00:41:12.572Z,13.85
2022-12-14T00:43:39.326Z,13.65
2022-12-14T00:46:05.942Z,13.00
2022-12-14T00:48:33.104Z,17.45
2022-12-14T00:51:00.320Z,15.80
2022-12-14T00:53:26.874Z,12.90
2022-12-14T00:55:53.795Z,14.07
2022-12-14T00:58:22.783Z,12.77
2022-12-14T01:01:00.117Z,19.45
2022-12-14T01:03:27.153Z,16.55
2022-12-14T01:05:53.918Z,15.27
2022-12-14T01:08:20.670Z,15.25
2022-12-14T01:10:47.087Z,13.07
2022-12-14T01:13:13.470Z,12.93
2022-12-14T01:15:40.135Z,13.73
2022-12-14T01:18:06.549Z,18.45
2022-12-14T01:20:32.947Z,16.92
2022-12-14T01:22:59.389Z,15.60
2022-12-14T01:25:26.341Z,15.57
2022-12-14T01:27:52.811Z,13.40
2022-12-14T01:30:19.490Z,17.58
2022-12-14T01:32:46.610Z,16.05
2022-12-14T01:35:13.101Z,16.70
2022-12-14T01:37:39.535Z,14.35
2022-12-14T01:40:06.433Z,15.98
2022-12-14T01:42:35.827Z,15.85
2022-12-14T01:47:38.223Z,14.77
2022-12-14T01:50:43.207Z,15.73
2022-12-14T01:53:16.039Z,22.13
2022-12-14T01:55:49.041Z,14.45
2022-12-14T01:58:20.186Z,17.33
2022-12-14T02:00:48.539Z,19.38
2022-12-14T02:03:22.508Z,16.35
2022-12-14T02:05:54.742Z,17.98
2022-12-14T02:08:23.603Z,19.05
2022-12-14T02:10:52.086Z,14.05
2022-12-14T02:13:31.328Z,16.08
2022-12-14T02:15:58.016Z,16.75
2022-12-14T02:18:27.218Z,12.88
2022-12-14T02:21:19.097Z,17.20
2022-12-14T02:24:36.799Z,21.30
2022-12-14T02:27:15.395Z,12.77
2022-12-14T02:30:05.095Z,15.65
2022-12-14T02:33:03.877Z,14.73
2022-12-14T02:35:58.136Z,12.27
2022-12-14T02:38:46.601Z,15.50
2022-12-14T02:41:40.067Z,15.63
2022-12-14T02:44:38.535Z,12.75
2022-12-14T02:47:29.355Z,14.73
2022-12-14T02:50:07.717Z,15.80
2022-12-14T02:52:58.973Z,16.02
2022-12-14T02:55:34.905Z,13.55
2022-12-14T03:00:38.620Z,12.43
2022-12-14T03:03:05.898Z,16.67
2022-12-14T03:05:33.101Z,15.07
2022-12-14T03:08:03.766Z,15.18
2022-12-14T03:10:43.894Z,19.02
2022-12-14T03:13:19.562Z,16.67
2022-12-14T03:15:52.971Z,13.10
2022-12-14T03:18:21.523Z,14.70
2022-12-14T03:20:52.400Z,14.43
2022-12-14T03:23:25.185Z,13.27
2022-12-14T03:26:11.005Z,14.55
2022-12-14T03:28:45.616Z,16.00
2022-12-14T03:31:32.317Z,16.83
2022-12-14T03:34:02.877Z,18.30
2022-12-14T03:36:40.759Z,17.15
2022-12-14T03:39:12.994Z,15.75
2022-12-14T03:42:06.762Z,15.85
2022-12-14T03:44:49.011Z,18.60
2022-12-14T03:47:52.230Z,13.52
2022-12-14T03:50:18.572Z,22.25
2022-12-14T03:53:09.830Z,18.13
2022-12-14T03:55:52.581Z,17.70
2022-12-14T03:58:22.129Z,15.52
2022-12-14T04:00:54.041Z,13.48
2022-12-14T04:03:37.479Z,13.48
2022-12-14T04:06:09.590Z,16.85
2022-12-14T04:08:48.146Z,18.08
2022-12-14T04:11:35.304Z,15.38
2022-12-14T04:14:35.522Z,14.70
2022-12-14T04:17:25.945Z,14.23
2022-12-14T04:20:00.668Z,14.45
2022-12-14T04:22:33.392Z,16.90
2022-12-14T04:25:23.212Z,13.45
2022-12-14T04:27:58.491Z,16.85
2022-12-14T04:30:24.923Z,15.68
2022-12-14T04:33:00.313Z,14.43
2022-12-14T04:35:35.427Z,15.13
2022-12-14T04:38:16.079Z,14.73
2022-12-14T04:40:46.454Z,15.70
2022-12-14T04:43:21.533Z,15.07
2022-12-14T04:46:10.539Z,12.98
2022-12-14T04:48:49.758Z,15.70
2022-12-14T04:51:20.044Z,15.30
2022-12-14T04:53:53.425Z,14.38
2022-12-14T04:56:31.865Z,18.88
2022-12-14T04:58:58.672Z,15.98
2022-12-14T05:01:45.446Z,13.10
2022-12-14T05:04:28.205Z,14.15
2022-12-14T05:07:16.760Z,11.48
2022-12-14T05:09:43.096Z,16.60
2022-12-14T05:12:42.774Z,13.23
2022-12-14T05:15:14.536Z,13.50
2022-12-14T05:17:42.504Z,17.13
2022-12-14T05:20:24.235Z,13.32
2022-12-14T05:22:50.810Z,18.83
2022-12-14T05:25:17.208Z,15.45
2022-12-14T05:27:43.695Z,13.30
2022-12-14T05:30:10.833Z,15.48
2022-12-14T05:32:37.229Z,16.55
2022-12-14T05:35:04.687Z,13.13
2022-12-14T05:37:31.119Z,16.90
2022-12-14T05:39:57.757Z,18.52
2022-12-14T05:42:24.231Z,15.95
2022-12-14T05:44:50.630Z,16.33
2022-12-14T05:47:17.308Z,16.67
2022-12-14T05:49:43.715Z,18.65
2022-12-14T05:52:10.323Z,12.85
2022-12-14T05:54:36.731Z,14.18
2022-12-14T05:57:03.170Z,18.23
2022-12-14T05:59:30.887Z,17.92
2022-12-14T06:01:58.001Z,18.38
2022-12-14T06:04:24.853Z,18.40
2022-12-14T06:06:51.643Z,17.30
2022-12-14T06:09:19.094Z,15.48
2022-12-14T06:11:46.792Z,16.13
2022-12-14T06:14:13.868Z,20.00
2022-12-14T06:16:42.157Z,14.45
2022-12-14T06:19:09.320Z,16.33
2022-12-14T06:21:38.330Z,15.95
2022-12-14T06:24:05.852Z,12.95
2022-12-14T06:26:55.113Z,14.52
2022-12-14T06:29:21.625Z,18.70
2022-12-14T06:31:49.080Z,15.65
2022-12-14T06:34:16.646Z,13.90
2022-12-14T06:36:43.204Z,16.77
2022-12-14T06:39:15.587Z,17.17
2022-12-14T06:41:42.810Z,14.70
2022-12-14T06:44:14.196Z,17.45
2022-12-14T06:46:40.722Z,13.98
2022-12-14T06:49:07.237Z,14.43
2022-12-14T06:51:39.339Z,14.52
2022-12-14T06:54:06.016Z,20.63
2022-12-14T06:56:33.241Z,14.43
2022-12-14T06:58:59.641Z,17.15
2022-12-14T07:01:26.287Z,16.25
2022-12-14T07:03:55.557Z,17.23
2022-12-14T07:06:23.441Z,17.48
2022-12-14T07:08:52.739Z,17.80
2022-12-14T07:13:45.648Z,19.33
2022-12-14T07:16:21.340Z,15.40
2022-12-14T07:18:47.977Z,16.92
2022-12-14T07:21:17.744Z,15.88
2022-12-14T07:23:46.125Z,18.95
2022-12-14T07:26:25.293Z,15.27
2022-12-14T07:28:52.664Z,15.32
2022-12-14T07:31:24.569Z,18.00
2022-12-14T07:33:59.957Z,17.77
2022-12-14T07:36:28.797Z,19.10
2022-12-14T07:38:56.139Z,18.73
2022-12-14T07:41:30.358Z,18.10
2022-12-14T07:43:58.002Z,16.92
2022-12-14T07:46:27.206Z,16.52
2022-12-14T07:48:55.877Z,16.13
2022-12-14T07:51:25.298Z,17.17
2022-12-14T07:53:52.590Z,24.58
2022-12-14T07:56:25.445Z,16.75
2022-12-14T07:58:52.677Z,14.20
2022-12-14T08:01:20.385Z,17.80
2022-12-14T08:03:49.375Z,17.00
2022-12-14T08:06:16.809Z,15.02
2022-12-14T08:08:43.768Z,15.18
2022-12-14T08:11:11.061Z,21.08
2022-12-14T08:13:39.011Z,16.33
2022-12-14T08:16:16.450Z,18.92
2022-12-14T08:18:43.847Z,17.63
2022-12-14T08:21:12.171Z,15.80
2022-12-14T08:23:39.054Z,15.43
2022-12-14T08:26:06.545Z,17.77
2022-12-14T08:28:34.529Z,13.35
2022-12-14T08:31:13.277Z,14.55
2022-12-14T08:33:40.665Z,18.08
2022-12-14T08:36:09.924Z,18.50
2022-12-14T08:38:37.517Z,15.57
2022-12-14T08:41:10.145Z,20.00
2022-12-14T08:43:36.978Z,19.13
2022-12-14T08:46:03.933Z,13.98
2022-12-14T08:48:33.821Z,13.77
2022-12-14T08:51:11.481Z,21.63
2022-12-14T08:53:38.618Z,21.38
2022-12-14T08:56:13.161Z,19.35
2022-12-14T08:58:40.817Z,14.63
2022-12-14T09:01:08.850Z,17.08
2022-12-14T09:03:35.392Z,17.25
2022-12-14T09:06:09.636Z,15.85
2022-12-14T09:08:36.595Z,15.85
2022-12-14T09:11:04.865Z,18.90
2022-12-14T09:13:32.190Z,16.20
2022-12-14T09:16:05.348Z,19.23
2022-12-14T09:18:32.608Z,18.92
2022-12-14T09:20:59.860Z,22.42
2022-12-14T09:23:28.736Z,21.13
2022-12-14T09:26:04.024Z,19.75
2022-12-14T09:28:32.664Z,21.63
2022-12-14T09:31:01.453Z,19.70
2022-12-14T09:33:29.061Z,16.38
2022-12-14T09:36:13.914Z,19.20
2022-12-14T09:38:48.723Z,19.98
2022-12-14T09:41:32.881Z,16.95
2022-12-14T09:44:18.723Z,23.27
2022-12-14T09:47:17.844Z,19.10
2022-12-14T09:50:10.219Z,19.48
2022-12-14T09:52:54.386Z,18.95
2022-12-14T09:55:33.688Z,17.98
2022-12-14T09:58:03.243Z,19.27
2022-12-14T10:00:38.125Z,15.98
2022-12-14T10:03:51.657Z,17.95
2022-12-14T10:06:39.967Z,17.23
2022-12-14T10:09:25.537Z,20.67
2022-12-14T10:11:59.914Z,20.25
2022-12-14T10:14:31.276Z,20.50
2022-12-14T10:17:15.241Z,18.67
2022-12-14T10:19:52.043Z,17.70
2022-12-14T10:22:27.575Z,18.50
2022-12-14T10:25:24.758Z,18.17
2022-12-14T10:28:10.909Z,19.52
2022-12-14T10:30:40.090Z,16.45
2022-12-14T10:33:14.820Z,22.98
2022-12-14T10:35:54.763Z,23.55
2022-12-14T10:38:33.467Z,21.35
2022-12-14T10:41:08.228Z,19.85
2022-12-14T10:44:02.683Z,23.42
2022-12-14T10:46:56.559Z,19.48
2022-12-14T10:49:45.878Z,24.92
2022-12-14T10:52:28.448Z,19.42
2022-12-14T10:55:07.045Z,21.35
2022-12-14T10:57:33.480Z,19.60
2022-12-14T11:00:09.587Z,19.67
2022-12-14T11:02:43.328Z,19.25
2022-12-14T11:05:35.724Z,18.95
2022-12-14T11:08:04.437Z,19.02
2022-12-14T11:10:36.114Z,20.55
2022-12-14T11:13:18.785Z,18.13
2022-12-14T11:15:50.962Z,20.83
2022-12-14T11:18:17.454Z,19.67
2022-12-14T11:20:51.706Z,21.42
2022-12-14T11:23:21.043Z,18.55
2022-12-14T11:28:18.692Z,22.60
2022-12-14T11:33:33.025Z,21.05
2022-12-14T11:35:59.880Z,19.27
2022-12-14T11:38:28.021Z,17.90
2022-12-14T11:40:54.890Z,26.30
2022-12-14T11:43:34.907Z,19.75
2022-12-14T11:46:01.607Z,22.95
2022-12-14T11:48:29.418Z,26.10
2022-12-14T11:51:10.863Z,20.83
2022-12-14T11:53:37.343Z,21.83
2022-12-14T11:56:08.933Z,21.83
2022-12-14T11:58:47.709Z,20.88
2022-12-14T12:01:17.447Z,19.50
2022-12-14T12:03:52.970Z,22.15
2022-12-14T12:06:24.102Z,25.42
2022-12-14T12:08:56.288Z,20.23
2022-12-14T12:11:27.686Z,25.17
2022-12-14T12:14:04.306Z,23.30
2022-12-14T12:16:33.006Z,26.83
2022-12-14T12:19:12.167Z,26.95
2022-12-14T12:21:44.727Z,24.10
2022-12-14T12:24:20.730Z,28.48
2022-12-14T12:26:53.143Z,23.70
2022-12-14T12:29:19.535Z,25.08
2022-12-14T12:31:55.238Z,21.92
2022-12-14T12:34:47.197Z,24.80
2022-12-14T12:37:32.542Z,23.40
2022-12-14T12:40:06.562Z,22.05
2022-12-14T12:42:44.777Z,26.20
2022-12-14T12:45:30.137Z,24.05
2022-12-14T12:48:06.751Z,23.15
2022-12-14T12:50:36.963Z,21.55
2022-12-14T12:53:11.054Z,21.77
2022-12-14T12:55:42.364Z,25.35
2022-12-14T12:58:22.563Z,21.52
2022-12-14T13:00:55.443Z,22.95
2022-12-14T13:03:27.504Z,24.73
2022-12-14T13:05:57.367Z,26.02
2022-12-14T13:08:32.018Z,22.17
2022-12-14T13:11:28.092Z,24.25
2022-12-14T13:14:05.381Z,38.17
2022-12-14T13:16:39.743Z,35.25
2022-12-14T13:22:22.566Z,28.15
2022-12-14T13:24:57.002Z,22.58
2022-12-14T13:27:43.131Z,48.10
2022-12-14T13:30:44.824Z,28.70
2022-12-14T13:33:23.084Z,31.50
2022-12-14T13:36:28.125Z,24.88
2022-12-14T13:39:25.055Z,29.13
2022-12-14T13:41:58.118Z,32.55
2022-12-14T13:44:34.731Z,28.45
2022-12-14T13:47:15.301Z,28.05
2022-12-14T13:50:11.243Z,30.33
2022-12-14T13:52:45.197Z,24.98
2022-12-14T13:55:29.819Z,23.45
2022-12-14T13:58:17.009Z,28.50
2022-12-14T14:00:46.675Z,24.55
2022-12-14T14:03:35.177Z,27.52
2022-12-14T14:06:22.770Z,34.97
2022-12-14T14:08:51.378Z,32.35
2022-12-14T14:11:39.747Z,34.63
2022-12-14T14:16:56.787Z,31.40
2022-12-14T14:19:26.611Z,34.97
2022-12-14T14:22:25.704Z,39.92
2022-12-14T14:24:57.223Z,34.30
2022-12-14T14:27:27.186Z,35.33
2022-12-14T14:29:55.031Z,34.00
2022-12-14T14:32:38.214Z,31.65
2022-12-14T14:35:22.638Z,37.55
2022-12-14T14:38:01.882Z,31.90
2022-12-14T14:41:06.532Z,38.75
2022-12-14T14:43:26.693Z,41.30
2022-12-14T14:45:56.372Z,33.95
2022-12-14T14:48:28.050Z,34.20
2022-12-14T14:51:05.295Z,34.53
2022-12-14T14:53:34.491Z,32.60
2022-12-14T14:58:47.784Z,32.20
2022-12-14T15:01:20.139Z,36.47
2022-12-14T15:03:57.069Z,34.03
2022-12-14T15:06:33.366Z,43.97
2022-12-14T15:09:05.229Z,43.30
2022-12-14T15:11:44.713Z,37.28
2022-12-14T15:14:50.775Z,34.55
2022-12-14T15:17:17.131Z,40.47
2022-12-14T15:19:55.147Z,30.33
2022-12-14T15:22:26.594Z,30.10
2022-12-14T15:24:56.298Z,33.38
2022-12-14T15:27:28.800Z,28.65
2022-12-14T15:30:02.785Z,32.30
2022-12-14T15:32:30.529Z,31.83
2022-12-14T15:35:00.882Z,38.33
2022-12-14T15:37:41.740Z,35.70
2022-12-14T15:40:22.836Z,29.17
2022-12-14T15:42:53.101Z,28.20
2022-12-14T15:45:24.543Z,33.40
2022-12-14T15:47:51.963Z,32.33
2022-12-14T15:50:29.677Z,26.65
2022-12-14T15:53:05.178Z,33.42
2022-12-14T15:55:35.244Z,30.95
2022-12-14T15:58:10.711Z,29.27
2022-12-14T16:00:42.448Z,31.80
2022-12-14T16:03:36.347Z,30.75
2022-12-14T16:06:03.385Z,35.40
2022-12-14T16:08:33.571Z,35.30
2022-12-14T16:11:05.611Z,38.97
2022-12-14T16:13:42.419Z,33.83
2022-12-14T16:16:12.012Z,35.97
2022-12-14T16:18:50.579Z,30.23
2022-12-14T16:21:33.381Z,34.83
2022-12-14T16:24:12.813Z,36.45
2022-12-14T16:26:39.804Z,31.98
2022-12-14T16:29:07.471Z,35.67
2022-12-14T16:31:34.327Z,38.63
2022-12-14T16:34:20.109Z,36.42
2022-12-14T16:37:14.627Z,35.78
2022-12-14T16:39:45.511Z,30.23
2022-12-14T16:42:20.809Z,36.63
2022-12-14T16:44:48.858Z,30.23
2022-12-14T16:47:15.218Z,33.60
2022-12-14T16:49:48.281Z,39.03
2022-12-14T16:52:43.974Z,47.70
2022-12-14T16:55:19.005Z,45.30
2022-12-14T16:57:48.590Z,37.80
2022-12-14T17:00:23.272Z,36.45
2022-12-14T17:02:59.326Z,34.13
2022-12-14T17:05:31.719Z,35.85
2022-12-14T17:07:58.224Z,35.25
2022-12-14T17:10:26.970Z,35.80
2022-12-14T17:12:58.837Z,34.35
2022-12-14T17:15:27.141Z,45.35
2022-12-14T17:17:56.403Z,41.45
2022-12-14T17:22:58.551Z,34.60
2022-12-14T17:25:27.447Z,39.70
2022-12-14T17:27:54.498Z,36.13
2022-12-14T17:30:22.903Z,34.17
2022-12-14T17:32:50.751Z,41.97
2022-12-14T17:35:25.469Z,37.30
2022-12-14T17:37:52.344Z,44.28
2022-12-14T17:40:18.788Z,37.45
2022-12-14T17:42:51.677Z,35.97
2022-12-14T17:45:21.740Z,41.17
2022-12-14T17:47:48.851Z,45.97
2022-12-14T17:50:19.675Z,37.17
2022-12-14T17:52:47.300Z,42.63
2022-12-14T17:55:22.403Z,45.03
2022-12-14T17:57:49.340Z,46.63
2022-12-14T18:00:37.960Z,51.53
2022-12-14T18:03:05.131Z,48.80
2022-12-14T18:05:32.431Z,43.72
2022-12-14T18:07:59.236Z,49.38
2022-12-14T18:10:26.268Z,53.38
2022-12-14T18:12:52.728Z,57.95
2022-12-14T18:15:31.382Z,50.55
2022-12-14T18:17:58.120Z,51.00
2022-12-14T18:20:24.904Z,80.57
2022-12-14T18:22:52.084Z,54.83
2022-12-14T18:25:39.214Z,52.40
2022-12-14T18:28:07.232Z,51.92
2022-12-14T18:30:40.778Z,75.40
2022-12-14T18:33:17.628Z,65.53
2022-12-14T18:35:45.892Z,52.33
2022-12-14T18:38:12.713Z,52.92
2022-12-14T18:40:41.699Z,43.20
2022-12-14T18:43:15.704Z,49.45
2022-12-14T18:45:42.214Z,52.35
2022-12-14T18:48:08.597Z,57.55
2022-12-14T18:50:39.552Z,38.75
2022-12-14T18:53:13.912Z,37.85
2022-12-14T18:55:41.050Z,44.97
2022-12-14T18:58:08.086Z,41.03
2022-12-14T19:00:35.989Z,45.75
2022-12-14T19:03:04.297Z,42.65
2022-12-14T19:05:34.134Z,40.33
2022-12-14T19:08:00.773Z,49.40
2022-12-14T19:10:30.603Z,48.13
2022-12-14T19:12:58.119Z,52.65
2022-12-14T19:15:33.639Z,44.42
2022-12-14T19:18:01.199Z,46.78
2022-12-14T19:20:29.124Z,43.75
2022-12-14T19:22:55.612Z,36.15
2022-12-14T19:25:22.796Z,42.25
2022-12-14T19:30:36.182Z,43.92
2022-12-14T19:33:02.674Z,49.08
2022-12-14T19:35:29.190Z,40.13
2022-12-14T19:37:55.612Z,38.17
2022-12-14T19:40:22.015Z,40.88
2022-12-14T19:42:48.532Z,38.08
2022-12-14T19:45:15.429Z,37.63
2022-12-14T19:47:43.987Z,39.63
2022-12-14T19:50:14.308Z,38.05
2022-12-14T19:52:41.290Z,36.88
2022-12-14T19:55:08.170Z,33.33
2022-12-14T19:57:34.884Z,41.00
2022-12-14T20:00:06.548Z,39.58
2022-12-14T20:02:33.186Z,34.13
2022-12-14T20:04:59.989Z,33.22
2022-12-14T20:07:26.426Z,35.90
2022-12-14T20:09:52.903Z,38.85
2022-12-14T20:12:19.291Z,42.28
2022-12-14T20:14:49.545Z,42.72
2022-12-14T20:17:16.529Z,36.53
2022-12-14T20:19:43.430Z,31.75
2022-12-14T20:22:09.960Z,33.47
2022-12-14T20:24:36.567Z,37.08
2022-12-14T20:27:03.011Z,39.72
2022-12-14T20:29:29.507Z,36.35
2022-12-14T20:31:56.235Z,36.65
2022-12-14T20:34:23.038Z,39.42
2022-12-14T20:36:49.591Z,38.97
2022-12-14T20:39:16.260Z,36.35
2022-12-14T20:41:42.659Z,39.13
2022-12-14T20:44:12.509Z,46.53
2022-12-14T20:46:44.889Z,41.35
2022-12-14T20:49:17.115Z,45.42
2022-12-14T20:51:44.867Z,41.13
2022-12-14T20:54:17.171Z,39.92
2022-12-14T20:56:44.867Z,44.78
2022-12-14T20:59:15.937Z,40.00
2022-12-14T21:01:43.070Z,44.17
2022-12-14T21:04:09.931Z,40.13
2022-12-14T21:06:39.551Z,40.42
2022-12-14T21:09:10.056Z,47.25
2022-12-14T21:12:04.264Z,41.95
2022-12-14T21:14:33.615Z,39.33
2022-12-14T21:17:00.998Z,39.53
2022-12-14T21:19:27.896Z,39.80
2022-12-14T21:21:54.489Z,40.95
2022-12-14T21:25:00.531Z,52.97
2022-12-14T21:29:36.491Z,42.78
2022-12-14T21:32:04.268Z,36.25
2022-12-14T21:34:33.951Z,40.95
2022-12-14T21:37:00.444Z,39.20
2022-12-14T21:39:26.845Z,42.10
2022-12-14T21:42:12.146Z,43.45
2022-12-14T21:44:40.963Z,41.25
2022-12-14T21:47:14.207Z,50.10
2022-12-14T21:49:44.891Z,44.92
2022-12-14T21:52:13.840Z,39.17
2022-12-14T21:54:41.112Z,39.80
2022-12-14T21:57:26.086Z,46.83
2022-12-14T21:59:52.483Z,38.45
2022-12-14T22:02:24.152Z,35.22
2022-12-14T22:04:56.137Z,35.75
2022-12-14T22:07:30.511Z,40.05
2022-12-14T22:09:57.195Z,41.53
2022-12-14T22:12:23.589Z,43.35
2022-12-14T22:14:50.201Z,42.10
2022-12-14T22:17:16.609Z,42.30
2022-12-14T22:19:43.000Z,37.88
2022-12-14T22:22:14.880Z,41.78
2022-12-14T22:24:41.709Z,38.78
2022-12-14T22:27:09.990Z,45.20
2022-12-14T22:29:36.453Z,39.97
2022-12-14T22:32:02.954Z,43.60
2022-12-14T22:34:29.466Z,42.13
2022-12-14T22:36:55.857Z,39.78
2022-12-14T22:39:22.248Z,39.10
2022-12-14T22:41:49.138Z,41.78
2022-12-14T22:44:15.510Z,40.22
2022-12-14T22:46:41.984Z,44.45
2022-12-14T22:49:08.985Z,43.25
2022-12-14T22:51:35.566Z,43.63
2022-12-14T22:54:02.448Z,40.28
2022-12-14T22:56:40.809Z,41.72
2022-12-14T22:59:16.223Z,45.72
2022-12-14T23:01:43.762Z,51.28
2022-12-14T23:04:16.762Z,43.35
2022-12-14T23:06:43.395Z,38.25
2022-12-14T23:09:28.541Z,39.65
2022-12-14T23:12:16.061Z,35.97
2022-12-14T23:15:04.914Z,41.55
2022-12-14T23:17:49.639Z,43.15
2022-12-14T23:20:34.488Z,41.38
2022-12-14T23:23:24.426Z,39.38
2022-12-14T23:26:09.280Z,47.70
2022-12-14T23:28:54.160Z,47.20
2022-12-14T23:31:39.418Z,44.30
2022-12-14T23:34:24.275Z,47.40
2022-12-14T23:37:09.172Z,44.45
2022-12-14T23:39:54.937Z,48.03
2022-12-14T23:42:40.231Z,41.63
2022-12-14T23:45:25.500Z,39.28
2022-12-14T23:48:14.386Z,38.85
2022-12-14T23:50:59.192Z,39.50
2022-12-14T23:53:44.104Z,41.35
2022-12-14T23:56:35.006Z,46.60
2022-12-14T23:59:20.204Z,40.83
